createdAt,value
2018-04-14T00:00:27.040Z,89.59
2018-04-14T00:01:07.343Z,89.4
2018-04-14T00:01:47.728Z,89.88
2018-04-14T00:02:28.235Z,89.69
2018-04-14T00:03:08.509Z,89.69
2018-04-14T00:03:48.899Z,89.4
2018-04-14T00:04:29.286Z,89.4
2018-04-14T00:05:09.715Z,89.69
2018-04-14T00:05:50.080Z,89.59
2018-04-14T00:06:30.473Z,89.69
2018-04-14T00:07:10.826Z,89.31
2018-04-14T00:07:51.260Z,89.5
2018-04-14T00:08:31.661Z,89.31
2018-04-14T00:09:12.031Z,89.69
2018-04-14T00:09:52.603Z,89.5
2018-04-14T00:10:32.791Z,89.4
2018-04-14T00:11:13.247Z,89.88
2018-04-14T00:11:53.631Z,89.69
2018-04-14T00:12:34.025Z,89.5
2018-04-14T00:13:14.419Z,89.59
2018-04-14T00:13:54.861Z,89.69
2018-04-14T00:14:35.168Z,89.21
2018-04-14T00:15:15.651Z,89.31
2018-04-14T00:15:56.044Z,89.21
2018-04-14T00:16:36.356Z,89.4
2018-04-14T00:17:16.722Z,89.21
2018-04-14T00:17:57.174Z,89.4
2018-04-14T00:18:37.566Z,89.69
2018-04-14T00:19:18.013Z,89.5
2018-04-14T00:19:58.453Z,89.4
2018-04-14T00:20:38.823Z,89.31
2018-04-14T00:21:19.227Z,89.12
2018-04-14T00:21:59.678Z,89.69
2018-04-14T00:22:40.084Z,89.12
2018-04-14T00:23:20.454Z,89.02
2018-04-14T00:24:00.875Z,89.21
2018-04-14T00:24:41.262Z,89.21
2018-04-14T00:25:21.633Z,89.31
2018-04-14T00:26:02.004Z,89.31
2018-04-14T00:26:42.432Z,89.5
2018-04-14T00:27:22.825Z,88.92
2018-04-14T00:28:03.203Z,88.73
2018-04-14T00:28:43.618Z,88.73
2018-04-14T00:29:24.065Z,88.73
2018-04-14T00:30:04.415Z,88.92
2018-04-14T00:30:44.757Z,88.26
2018-04-14T00:31:25.195Z,88.54
2018-04-14T00:32:05.614Z,89.21
2018-04-14T00:32:45.910Z,88.92
2018-04-14T00:33:26.355Z,88.83
2018-04-14T00:34:06.768Z,88.64
2018-04-14T00:34:47.100Z,88.83
2018-04-14T00:35:27.482Z,89.02
2018-04-14T00:36:07.881Z,88.54
2018-04-14T00:36:48.331Z,88.73
2018-04-14T00:37:28.664Z,88.92
2018-04-14T00:38:09.130Z,88.73
2018-04-14T00:38:49.462Z,88.45
2018-04-14T00:39:29.861Z,88.54
2018-04-14T00:40:10.328Z,88.92
2018-04-14T00:40:50.643Z,88.64
2018-04-14T00:41:31.070Z,88.64
2018-04-14T00:42:11.502Z,88.64
2018-04-14T00:42:51.921Z,88.73
2018-04-14T00:43:32.285Z,88.83
2018-04-14T00:44:12.713Z,89.21
2018-04-14T00:44:53.006Z,88.26
2018-04-14T00:45:33.426Z,88.07
2018-04-14T00:46:13.868Z,88.35
2018-04-14T00:46:54.261Z,88.16
2018-04-14T00:47:34.618Z,88.16
2018-04-14T00:48:15.095Z,88.73
2018-04-14T00:48:55.435Z,88.07
2018-04-14T00:49:35.859Z,88.07
2018-04-14T00:50:16.241Z,87.78
2018-04-14T00:50:56.648Z,87.97
2018-04-14T00:51:36.981Z,87.97
2018-04-14T00:52:17.422Z,87.78
2018-04-14T00:52:57.768Z,88.16
2018-04-14T00:53:38.167Z,88.07
2018-04-14T00:54:18.692Z,87.87
2018-04-14T00:54:59.039Z,88.54
2018-04-14T00:55:39.359Z,88.54
2018-04-14T00:56:19.779Z,88.07
2018-04-14T00:57:00.163Z,87.78
2018-04-14T00:57:40.613Z,88.35
2018-04-14T00:58:20.953Z,87.97
2018-04-14T00:59:01.395Z,88.45
2018-04-14T00:59:41.834Z,87.87
2018-04-14T01:00:22.164Z,87.97
2018-04-14T01:01:02.598Z,87.97
2018-04-14T01:01:43.014Z,87.49
2018-04-14T01:02:23.410Z,87.4
2018-04-14T01:03:03.736Z,88.16
2018-04-14T01:03:44.161Z,87.97
2018-04-14T01:04:24.505Z,87.97
2018-04-14T01:05:04.914Z,87.97
2018-04-14T01:05:45.312Z,88.16
2018-04-14T01:06:25.671Z,87.83
2018-04-14T01:07:06.050Z,87.78
2018-04-14T01:07:46.445Z,88.4
2018-04-14T01:08:26.929Z,88.31
2018-04-14T01:09:07.313Z,88.4
2018-04-14T01:09:47.653Z,88.59
2018-04-14T01:10:28.094Z,88.59
2018-04-14T01:11:08.485Z,88.78
2018-04-14T01:11:48.839Z,88.83
2018-04-14T01:12:29.262Z,88.5
2018-04-14T01:13:09.741Z,88.69
2018-04-14T01:13:50.152Z,88.78
2018-04-14T01:14:30.545Z,88.78
2018-04-14T01:15:11.500Z,88.59
2018-04-14T01:15:51.896Z,88.98
2018-04-14T01:16:32.361Z,89.17
2018-04-14T01:17:12.708Z,89.26
2018-04-14T01:17:53.115Z,89.64
2018-04-14T01:18:33.513Z,89.36
2018-04-14T01:19:13.922Z,89.17
2018-04-14T01:19:54.415Z,89.64
2018-04-14T01:20:34.828Z,88.78
2018-04-14T01:21:15.309Z,88.59
2018-04-14T01:21:55.697Z,88.69
2018-04-14T01:22:36.060Z,88.59
2018-04-14T01:23:16.474Z,89.17
2018-04-14T01:23:56.825Z,88.78
2018-04-14T01:24:37.261Z,88.78
2018-04-14T01:25:17.656Z,89.36
2018-04-14T01:25:58.056Z,88.5
2018-04-14T01:26:38.447Z,88.98
2018-04-14T01:27:18.878Z,88.5
2018-04-14T01:27:59.295Z,88.31
2018-04-14T01:28:39.708Z,88.4
2018-04-14T01:29:20.041Z,87.54
2018-04-14T01:30:00.446Z,87.93
2018-04-14T01:30:40.826Z,88.02
2018-04-14T01:31:21.221Z,87.26
2018-04-14T01:32:01.620Z,87.35
2018-04-14T01:32:42.025Z,87.64
2018-04-14T01:33:22.389Z,86.78
2018-04-14T01:34:02.786Z,86.88
2018-04-14T01:34:43.193Z,87.26
2018-04-14T01:35:23.581Z,88.02
2018-04-14T01:36:04.029Z,87.26
2018-04-14T01:36:44.381Z,87.93
2018-04-14T01:37:24.743Z,88.31
2018-04-14T01:38:05.178Z,87.93
2018-04-14T01:38:45.572Z,88.02
2018-04-14T01:39:25.961Z,88.31
2018-04-14T01:40:06.335Z,88.31
2018-04-14T01:40:46.737Z,88.02
2018-04-14T01:41:27.117Z,88.12
2018-04-14T01:42:07.541Z,87.93
2018-04-14T01:42:47.962Z,88.12
2018-04-14T01:43:28.345Z,88.12
2018-04-14T01:44:08.784Z,87.93
2018-04-14T01:44:49.120Z,87.26
2018-04-14T01:45:29.521Z,87.07
2018-04-14T01:46:09.907Z,87.16
2018-04-14T01:46:50.284Z,86.98
2018-04-14T01:47:30.712Z,87.26
2018-04-14T01:48:11.140Z,87.07
2018-04-14T01:48:51.858Z,87.07
2018-04-14T01:49:31.876Z,86.49
2018-04-14T01:50:12.216Z,87.26
2018-04-14T01:50:52.667Z,87.16
2018-04-14T01:51:33.020Z,86.78
2018-04-14T01:52:13.397Z,87.35
2018-04-14T01:52:53.780Z,87.35
2018-04-14T01:53:34.172Z,87.16
2018-04-14T01:54:14.602Z,87.26
2018-04-14T01:54:54.957Z,86.3
2018-04-14T01:55:35.347Z,86.78
2018-04-14T01:56:15.728Z,86.69
2018-04-14T01:56:56.118Z,86.49
2018-04-14T01:57:36.515Z,86.59
2018-04-14T01:58:16.938Z,86.11
2018-04-14T01:58:57.304Z,86.69
2018-04-14T01:59:37.804Z,86.78
2018-04-14T02:00:18.106Z,86.78
2018-04-14T02:00:58.565Z,87.16
2018-04-14T02:01:38.883Z,86.49
2018-04-14T02:02:19.249Z,86.49
2018-04-14T02:02:59.667Z,86.69
2018-04-14T02:03:40.020Z,86.4
2018-04-14T02:04:20.461Z,86.4
2018-04-14T02:05:00.831Z,85.93
2018-04-14T02:05:41.289Z,85.93
2018-04-14T02:06:21.658Z,86.4
2018-04-14T02:07:02.073Z,86.59
2018-04-14T02:07:42.377Z,85.54
2018-04-14T02:08:22.834Z,85.64
2018-04-14T02:09:03.196Z,85.45
2018-04-14T02:09:43.592Z,85.54
2018-04-14T02:10:24.017Z,85.64
2018-04-14T02:11:04.384Z,85.93
2018-04-14T02:11:44.867Z,85.35
2018-04-14T02:12:25.244Z,85.73
2018-04-14T02:13:05.630Z,85.45
2018-04-14T02:13:46.073Z,85.06
2018-04-14T02:14:26.452Z,85.64
2018-04-14T02:15:06.824Z,85.64
2018-04-14T02:15:47.226Z,85.54
2018-04-14T02:16:27.660Z,85.64
2018-04-14T02:17:08.091Z,85.64
2018-04-14T02:17:48.469Z,85.54
2018-04-14T02:18:28.884Z,85.64
2018-04-14T02:19:09.224Z,85.25
2018-04-14T02:19:49.637Z,84.78
2018-04-14T02:20:30.009Z,84.88
2018-04-14T02:21:10.501Z,84.59
2018-04-14T02:21:50.863Z,84.59
2018-04-14T02:22:31.308Z,84.3
2018-04-14T02:23:11.682Z,85.16
2018-04-14T02:23:52.156Z,85.35
2018-04-14T02:24:32.520Z,85.16
2018-04-14T02:25:12.949Z,84.97
2018-04-14T02:25:53.314Z,85.16
2018-04-14T02:26:33.703Z,84.97
2018-04-14T02:27:14.148Z,85.45
2018-04-14T02:27:54.512Z,85.73
2018-04-14T02:28:34.960Z,85.64
2018-04-14T02:29:15.662Z,85.25
2018-04-14T02:29:55.969Z,85.35
2018-04-14T02:30:36.232Z,85.16
2018-04-14T02:31:16.603Z,85.35
2018-04-14T02:31:56.980Z,85.25
2018-04-14T02:32:37.337Z,85.5
2018-04-14T02:33:17.773Z,85.73
2018-04-14T02:33:58.100Z,86.11
2018-04-14T02:34:38.520Z,86.4
2018-04-14T02:35:18.891Z,85.64
2018-04-14T02:35:59.253Z,85.64
2018-04-14T02:36:39.719Z,85.54
2018-04-14T02:37:20.102Z,85.45
2018-04-14T02:38:00.456Z,84.97
2018-04-14T02:38:40.849Z,85.06
2018-04-14T02:39:21.239Z,85.54
2018-04-14T02:40:01.660Z,85.25
2018-04-14T02:40:42.038Z,85.64
2018-04-14T02:41:22.474Z,85.6
2018-04-14T02:42:02.811Z,85.6
2018-04-14T02:42:43.212Z,85.41
2018-04-14T02:43:23.569Z,85.6
2018-04-14T02:44:03.968Z,85.41
2018-04-14T02:44:44.360Z,85.6
2018-04-14T02:45:24.768Z,86.26
2018-04-14T02:46:05.196Z,87.5
2018-04-14T02:46:45.556Z,87.02
2018-04-14T02:47:25.996Z,87.12
2018-04-14T02:48:06.342Z,87.07
2018-04-14T02:48:46.792Z,87.54
2018-04-14T02:49:27.140Z,86.59
2018-04-14T02:50:07.499Z,85.73
2018-04-14T02:50:47.941Z,85.45
2018-04-14T02:51:28.296Z,85.16
2018-04-14T02:52:08.730Z,84.49
2018-04-14T02:52:49.121Z,84.4
2018-04-14T02:53:29.510Z,83.73
2018-04-14T02:54:09.875Z,84.97
2018-04-14T02:54:50.261Z,84.88
2018-04-14T02:55:30.697Z,84.78
2018-04-14T02:56:11.118Z,84.97
2018-04-14T02:56:51.475Z,84.88
2018-04-14T02:57:31.843Z,84.88
2018-04-14T02:58:12.258Z,84.59
2018-04-14T02:58:52.748Z,85.16
2018-04-14T02:59:33.121Z,85.16
2018-04-14T03:00:13.498Z,84.97
2018-04-14T03:00:53.881Z,84.97
2018-04-14T03:01:34.266Z,85.16
2018-04-14T03:02:14.738Z,85.06
2018-04-14T03:02:55.076Z,85.16
2018-04-14T03:03:35.535Z,84.97
2018-04-14T03:04:15.920Z,84.88
2018-04-14T03:04:56.295Z,85.35
2018-04-14T03:05:36.691Z,85.54
2018-04-14T03:06:17.065Z,84.88
2018-04-14T03:06:57.495Z,84.4
2018-04-14T03:07:37.886Z,83.92
2018-04-14T03:08:18.331Z,84.2
2018-04-14T03:08:58.667Z,84.11
2018-04-14T03:09:39.147Z,84.83
2018-04-14T03:10:19.534Z,84.88
2018-04-14T03:10:59.887Z,85.06
2018-04-14T03:11:40.206Z,84.59
2018-04-14T03:12:20.657Z,84.55
2018-04-14T03:13:01.043Z,84.64
2018-04-14T03:13:41.479Z,85.12
2018-04-14T03:14:21.875Z,85.02
2018-04-14T03:15:02.244Z,85.21
2018-04-14T03:15:42.708Z,84.83
2018-04-14T03:16:23.020Z,85.02
2018-04-14T03:17:03.459Z,85.02
2018-04-14T03:17:43.833Z,85.69
2018-04-14T03:18:24.238Z,85.69
2018-04-14T03:19:04.585Z,85.6
2018-04-14T03:19:45.025Z,85.69
2018-04-14T03:20:25.358Z,85.41
2018-04-14T03:21:05.835Z,86.07
2018-04-14T03:21:46.136Z,85.6
2018-04-14T03:22:26.579Z,86.65
2018-04-14T03:23:06.990Z,86.65
2018-04-14T03:23:47.347Z,86.26
2018-04-14T03:24:27.730Z,86.74
2018-04-14T03:25:08.119Z,85.97
2018-04-14T03:25:48.601Z,86.83
2018-04-14T03:26:28.928Z,86.65
2018-04-14T03:27:09.315Z,86.65
2018-04-14T03:27:49.733Z,86.16
2018-04-14T03:28:30.165Z,86.26
2018-04-14T03:29:10.527Z,85.78
2018-04-14T03:29:50.911Z,86.65
2018-04-14T03:30:31.325Z,86.16
2018-04-14T03:31:11.750Z,86.07
2018-04-14T03:31:52.125Z,86.07
2018-04-14T03:32:32.567Z,85.5
2018-04-14T03:33:12.898Z,85.5
2018-04-14T03:33:53.294Z,86.26
2018-04-14T03:34:33.717Z,86.45
2018-04-14T03:35:14.105Z,85.78
2018-04-14T03:35:54.467Z,86.36
2018-04-14T03:36:34.897Z,86.16
2018-04-14T03:37:15.264Z,86.16
2018-04-14T03:37:55.666Z,85.5
2018-04-14T03:38:36.010Z,85.78
2018-04-14T03:39:16.436Z,86.41
2018-04-14T03:39:56.885Z,86.41
2018-04-14T03:40:37.246Z,86.12
2018-04-14T03:41:17.636Z,86.22
2018-04-14T03:41:58.034Z,86.12
2018-04-14T03:42:38.421Z,86.32
2018-04-14T03:43:18.805Z,86.12
2018-04-14T03:43:59.169Z,86.32
2018-04-14T03:44:39.624Z,85.84
2018-04-14T03:45:19.950Z,85.74
2018-04-14T03:46:00.354Z,86.03
2018-04-14T03:46:40.787Z,85.46
2018-04-14T03:47:21.150Z,85.64
2018-04-14T03:48:01.568Z,86.22
2018-04-14T03:48:41.915Z,86.03
2018-04-14T03:49:22.300Z,86.12
2018-04-14T03:50:02.695Z,85.74
2018-04-14T03:50:43.103Z,85.64
2018-04-14T03:51:23.535Z,85.55
2018-04-14T03:52:03.969Z,85.27
2018-04-14T03:52:44.312Z,85.36
2018-04-14T03:53:24.691Z,85.55
2018-04-14T03:54:05.127Z,85.55
2018-04-14T03:54:45.507Z,85.74
2018-04-14T03:55:25.883Z,85.69
2018-04-14T03:56:06.345Z,85.46
2018-04-14T03:56:46.662Z,85.27
2018-04-14T03:57:27.110Z,85.55
2018-04-14T03:58:07.536Z,85.46
2018-04-14T03:58:47.881Z,86.03
2018-04-14T03:59:28.262Z,86.12
2018-04-14T04:00:08.692Z,86.12
2018-04-14T04:00:49.073Z,85.64
2018-04-14T04:01:29.530Z,85.64
2018-04-14T04:44:33.274Z,94.46
2018-04-14T04:45:13.715Z,94.18
2018-04-14T04:45:54.039Z,94.74
2018-04-14T04:46:34.440Z,95.32
2018-04-14T04:47:14.877Z,95.12
2018-04-14T04:47:55.215Z,95.22
2018-04-14T04:48:35.628Z,95.98
2018-04-14T04:49:15.992Z,95.79
2018-04-14T04:49:56.443Z,95.6
2018-04-14T04:50:36.834Z,95.98
2018-04-14T04:51:17.193Z,95.98
2018-04-14T04:51:57.587Z,96.17
2018-04-14T04:52:37.981Z,95.22
2018-04-14T04:53:18.331Z,94.93
2018-04-14T04:53:58.734Z,95.12
2018-04-14T04:54:39.141Z,95.7
2018-04-14T04:55:19.502Z,95.7
2018-04-14T04:55:59.918Z,95.79
2018-04-14T04:56:40.357Z,94.98
2018-04-14T04:57:20.663Z,95.08
2018-04-14T04:59:18.158Z,93.46
2018-04-14T04:59:58.506Z,92.99
2018-04-14T05:00:38.932Z,92.41
2018-04-14T05:01:19.308Z,91.65
2018-04-14T05:01:59.717Z,91.65
2018-04-14T05:02:40.115Z,90.84
2018-04-14T05:03:20.487Z,89.98
2018-04-14T05:04:00.894Z,90.17
2018-04-14T05:04:41.319Z,89.98
2018-04-14T05:05:21.694Z,89.79
2018-04-14T05:06:02.129Z,89.7
2018-04-14T05:06:42.506Z,88.37
2018-04-14T05:07:22.902Z,87.6
2018-04-14T05:08:03.266Z,86.69
2018-04-14T05:08:43.629Z,87.07
2018-04-14T05:09:24.039Z,87.07
2018-04-14T05:10:04.477Z,87.17
2018-04-14T05:10:44.788Z,86.69
2018-04-14T05:11:25.322Z,86.03
2018-04-14T05:12:05.669Z,86.12
2018-04-14T05:12:46.187Z,86.03
2018-04-14T05:13:26.577Z,86.32
2018-04-14T05:14:06.996Z,86.32
2018-04-14T05:14:47.475Z,85.93
2018-04-14T05:15:27.707Z,85.64
2018-04-14T05:16:08.150Z,85.55
2018-04-14T05:16:48.487Z,84.88
2018-04-14T05:17:28.907Z,85.08
2018-04-14T05:18:09.258Z,85.08
2018-04-14T05:18:49.645Z,85.08
2018-04-14T05:19:30.056Z,84.98
2018-04-14T05:20:10.492Z,85.36
2018-04-14T05:20:50.881Z,85.36
2018-04-14T05:21:31.253Z,85.17
2018-04-14T05:22:11.626Z,84.88
2018-04-14T05:22:52.067Z,84.83
2018-04-14T05:23:32.445Z,84.74
2018-04-14T05:24:12.890Z,84.07
2018-04-14T05:24:53.204Z,84.07
2018-04-14T05:25:33.619Z,83.97
2018-04-14T05:26:13.999Z,83.59
2018-04-14T05:26:54.436Z,83.5
2018-04-14T05:27:34.815Z,84.83
2018-04-14T05:28:15.185Z,85.31
2018-04-14T05:28:55.544Z,84.83
2018-04-14T05:29:35.964Z,85.21
2018-04-14T05:30:16.279Z,84.83
2018-04-14T05:30:56.669Z,83.69
2018-04-14T05:31:37.090Z,84.16
2018-04-14T05:32:17.517Z,83.97
2018-04-14T05:32:57.879Z,84.16
2018-04-14T05:33:38.262Z,83.88
2018-04-14T05:34:18.662Z,84.07
2018-04-14T05:34:59.032Z,83.5
2018-04-14T05:35:39.456Z,83.5
2018-04-14T05:36:19.818Z,83.21
2018-04-14T05:37:00.237Z,82.83
2018-04-14T05:37:40.643Z,83.59
2018-04-14T05:38:21.047Z,82.97
2018-04-14T05:39:01.442Z,83.06
2018-04-14T05:39:41.807Z,83.12
2018-04-14T05:40:22.213Z,82.4
2018-04-14T05:41:02.643Z,82.2
2018-04-14T05:41:42.998Z,83.16
2018-04-14T05:42:23.362Z,82.87
2018-04-14T05:43:03.819Z,82.4
2018-04-14T05:43:44.194Z,82.59
2018-04-14T05:44:24.584Z,82.2
2018-04-14T05:45:04.983Z,82.01
2018-04-14T05:45:45.400Z,82.3
2018-04-14T05:46:25.808Z,82.3
2018-04-14T05:47:06.165Z,81.82
2018-04-14T05:47:46.522Z,81.92
2018-04-14T05:48:26.947Z,81.92
2018-04-14T05:49:07.404Z,81.92
2018-04-14T05:49:47.797Z,81.92
2018-04-14T05:50:28.173Z,82.01
2018-04-14T05:51:08.566Z,81.92
2018-04-14T05:51:48.954Z,82.68
2018-04-14T05:52:29.392Z,82.3
2018-04-14T05:53:09.825Z,81.82
2018-04-14T05:53:50.148Z,82.2
2018-04-14T05:54:30.630Z,81.92
2018-04-14T05:55:10.949Z,81.82
2018-04-14T05:55:51.397Z,81.73
2018-04-14T05:56:31.805Z,81.63
2018-04-14T05:57:12.190Z,82.68
2018-04-14T05:57:52.577Z,82.68
2018-04-14T05:58:32.980Z,82.11
2018-04-14T05:59:13.319Z,82.59
2018-04-14T05:59:53.744Z,82.87
2018-04-14T06:00:34.144Z,83.35
2018-04-14T06:01:14.490Z,83.54
2018-04-14T06:01:54.932Z,83.39
2018-04-14T06:02:35.292Z,83.29
2018-04-14T06:03:15.691Z,82.63
2018-04-14T06:03:56.060Z,82
2018-04-14T06:04:36.455Z,81.24
2018-04-14T06:05:16.826Z,80.38
2018-04-14T06:05:57.255Z,79.8
2018-04-14T06:06:37.626Z,78.75
2018-04-14T06:07:17.995Z,78.41
2018-04-14T06:07:58.400Z,77.55
2018-04-14T06:08:38.796Z,76.35
2018-04-14T06:09:19.255Z,74.63
2018-04-14T06:09:59.674Z,73.43
2018-04-14T06:10:40.127Z,72.37
2018-04-14T06:11:20.469Z,71.03
2018-04-14T06:12:00.909Z,70.78
2018-04-14T06:12:41.254Z,70.5
2018-04-14T06:13:21.616Z,69.67
2018-04-14T06:14:02.021Z,68.71
2018-04-14T06:14:42.415Z,68.13
2018-04-14T06:15:22.792Z,67.69
2018-04-14T06:16:03.134Z,67.02
2018-04-14T06:16:43.544Z,66.38
2018-04-14T06:17:23.991Z,66.09
2018-04-14T06:18:04.370Z,65.42
2018-04-14T06:18:44.789Z,65.08
2018-04-14T06:19:25.158Z,64.31
2018-04-14T06:20:05.588Z,63.38
2018-04-14T06:20:45.959Z,62.62
2018-04-14T06:21:26.301Z,62.45
2018-04-14T06:22:06.826Z,61.78
2018-04-14T06:22:47.114Z,60.85
2018-04-14T06:23:27.514Z,60.75
2018-04-14T06:24:07.940Z,59.99
2018-04-14T06:24:48.327Z,58.87
2018-04-14T06:27:06.016Z,57.17
2018-04-14T06:27:46.369Z,57.07
2018-04-14T06:28:26.731Z,56.4
2018-04-14T06:29:07.174Z,55.85
2018-04-14T06:29:47.507Z,55.27
2018-04-14T06:30:27.927Z,54.72
2018-04-14T06:31:08.283Z,54.63
2018-04-14T06:31:48.667Z,53.66
2018-04-14T06:32:29.134Z,53.11
2018-04-14T06:33:09.460Z,52.92
2018-04-14T06:33:49.958Z,52.63
2018-04-14T06:34:30.364Z,52.18
2018-04-14T06:35:10.697Z,51.6
2018-04-14T06:35:51.152Z,50.83
2018-04-14T06:36:31.449Z,51.12
2018-04-14T06:37:11.858Z,50.37
2018-04-14T06:37:52.255Z,50.09
2018-04-14T06:38:32.684Z,49.51
2018-04-14T06:39:13.120Z,49.41
2018-04-14T06:39:53.517Z,49.22
2018-04-14T06:40:33.947Z,49.63
2018-04-14T06:41:14.254Z,49.24
2018-04-14T06:41:54.664Z,48.76
2018-04-14T06:42:35.111Z,48.57
2018-04-14T06:43:15.464Z,48.38
2018-04-14T06:43:55.885Z,47.6
2018-04-14T06:44:36.261Z,47.89
2018-04-14T06:45:16.724Z,47.8
2018-04-14T06:45:57.064Z,47.14
2018-04-14T06:46:37.472Z,47.34
2018-04-14T06:47:17.894Z,47.14
2018-04-14T06:47:58.331Z,46.86
2018-04-14T06:48:38.740Z,46.86
2018-04-14T06:49:19.139Z,47.05
2018-04-14T06:49:59.574Z,46.59
2018-04-14T06:50:39.942Z,46.78
2018-04-14T06:51:20.420Z,46.78
2018-04-14T06:52:00.777Z,46.49
2018-04-14T06:52:41.246Z,46.11
2018-04-14T06:53:21.594Z,45.92
2018-04-14T06:54:02.012Z,45.82
2018-04-14T06:54:42.407Z,45.43
2018-04-14T06:55:22.848Z,45.84
2018-04-14T06:56:03.213Z,45.36
2018-04-14T06:56:43.698Z,46.03
2018-04-14T06:57:24.062Z,45.26
2018-04-14T06:58:04.438Z,45.36
2018-04-14T06:58:44.857Z,45.36
2018-04-14T06:59:25.258Z,45.26
2018-04-14T07:00:05.714Z,45.17
2018-04-14T07:00:46.069Z,44.59
2018-04-14T07:01:26.459Z,44.6
2018-04-14T07:02:06.904Z,43.84
2018-04-14T07:02:47.307Z,44.2
2018-04-14T07:03:27.660Z,44.49
2018-04-14T07:04:08.119Z,44.6
2018-04-14T07:04:48.500Z,44.51
2018-04-14T07:05:28.910Z,44.39
2018-04-14T07:06:09.287Z,44.59
2018-04-14T07:06:49.705Z,44.49
2018-04-14T07:07:30.107Z,44.42
2018-04-14T07:08:10.494Z,44.6
2018-04-14T07:08:50.899Z,44.32
2018-04-14T07:09:31.363Z,43.93
2018-04-14T07:10:11.721Z,43.84
2018-04-14T07:10:52.238Z,43.54
2018-04-14T07:11:32.606Z,43.93
2018-04-14T07:12:13.103Z,43.64
2018-04-14T07:12:53.489Z,43.84
2018-04-14T07:13:33.912Z,44.03
2018-04-14T07:14:14.311Z,43.45
2018-04-14T07:14:54.680Z,43.45
2018-04-14T07:15:35.071Z,43.45
2018-04-14T07:16:15.443Z,43.18
2018-04-14T07:16:55.952Z,42.89
2018-04-14T07:17:36.337Z,42.79
2018-04-14T07:18:16.675Z,43.08
2018-04-14T07:18:57.102Z,42.31
2018-04-14T07:19:37.550Z,42.02
2018-04-14T07:20:18.077Z,42.14
2018-04-14T07:20:58.583Z,41.94
2018-04-14T07:21:39.026Z,41.56
2018-04-14T07:22:19.385Z,41.66
2018-04-14T07:22:59.866Z,41.66
2018-04-14T07:23:40.266Z,41.46
2018-04-14T07:24:20.641Z,41.48
2018-04-14T07:25:01.053Z,41.29
2018-04-14T07:25:41.467Z,41.27
2018-04-14T07:26:21.923Z,41.29
2018-04-14T07:27:02.355Z,40.71
2018-04-14T07:27:42.703Z,40.71
2018-04-14T07:28:23.124Z,40.52
2018-04-14T07:29:03.528Z,40.63
2018-04-14T07:29:43.897Z,40.23
2018-04-14T07:30:24.439Z,40.42
2018-04-14T07:31:04.812Z,40.34
2018-04-14T07:31:45.212Z,40.34
2018-04-14T07:32:25.618Z,39.94
2018-04-14T07:33:06.041Z,40.13
2018-04-14T07:33:46.354Z,40.34
2018-04-14T07:34:26.806Z,39.95
2018-04-14T07:35:07.162Z,39.76
2018-04-14T07:35:47.551Z,39.47
2018-04-14T07:36:28.036Z,39.86
2018-04-14T07:37:08.412Z,39.57
2018-04-14T07:37:48.849Z,39.47
2018-04-14T07:38:29.275Z,39.37
2018-04-14T07:39:09.640Z,39.67
2018-04-14T07:39:50.132Z,39.67
2018-04-14T07:40:30.466Z,39.88
2018-04-14T07:42:28.170Z,39.01
2018-04-14T07:43:08.591Z,38.91
2018-04-14T07:43:48.999Z,39.29
2018-04-14T07:44:29.565Z,39.2
2018-04-14T07:45:09.973Z,38.91
2018-04-14T07:45:50.455Z,38.71
2018-04-14T07:46:31.019Z,38.81
2018-04-14T07:47:11.493Z,38.81
2018-04-14T07:47:51.882Z,39.12
2018-04-14T07:48:32.289Z,39.11
2018-04-14T07:49:12.733Z,39.03
2018-04-14T07:49:53.199Z,38.93
2018-04-14T07:50:33.623Z,38.25
2018-04-14T07:51:14.108Z,37.96
2018-04-14T07:51:54.466Z,38.27
2018-04-14T07:52:36.531Z,37.69
2018-04-14T07:53:17.133Z,37.3
2018-04-14T07:53:57.548Z,37.77
2018-04-14T07:54:37.880Z,37.79
2018-04-14T07:55:18.367Z,37.3
2018-04-14T07:55:58.796Z,37.69
2018-04-14T07:56:39.268Z,37.23
2018-04-14T07:57:19.595Z,37.03
2018-04-14T07:57:59.971Z,37.23
2018-04-14T07:58:40.329Z,37.13
2018-04-14T07:59:20.762Z,37.05
2018-04-14T08:00:01.138Z,36.54
2018-04-14T08:00:41.555Z,36.66
2018-04-14T08:01:21.881Z,36.06
2018-04-14T08:02:02.308Z,36.16
2018-04-14T08:02:42.742Z,35.88
2018-04-14T08:03:23.294Z,35.69
2018-04-14T08:04:03.600Z,35.59
2018-04-14T08:04:44.079Z,35.59
2018-04-14T08:05:24.516Z,35.78
2018-04-14T08:06:04.853Z,35.49
2018-04-14T08:06:45.308Z,35.8
2018-04-14T08:07:25.732Z,35.41
2018-04-14T08:08:06.177Z,35.51
2018-04-14T08:08:46.613Z,35.4
2018-04-14T08:09:26.946Z,35.51
2018-04-14T08:10:07.379Z,35.21
2018-04-14T08:10:47.838Z,35.78
2018-04-14T08:11:28.203Z,35.49
2018-04-14T08:12:08.601Z,35.49
2018-04-14T08:12:49.012Z,35.49
2018-04-14T08:13:29.379Z,35.49
2018-04-14T08:14:09.748Z,35.41
2018-04-14T08:14:50.161Z,35.22
2018-04-14T08:15:30.605Z,34.74
2018-04-14T08:16:10.947Z,34.54
2018-04-14T08:16:51.404Z,34.54
2018-04-14T08:17:31.736Z,34.46
2018-04-14T08:18:12.188Z,34.66
2018-04-14T08:18:52.627Z,34.66
2018-04-14T08:19:33.044Z,34.93
2018-04-14T08:20:13.403Z,35.41
2018-04-14T08:20:53.818Z,35.13
2018-04-14T08:21:34.165Z,34.95
2018-04-14T08:22:14.601Z,34.85
2018-04-14T08:22:55.638Z,34.36
2018-04-14T08:23:35.851Z,34.17
2018-04-14T08:24:16.398Z,34.56
2018-04-14T08:24:57.182Z,34.95
2018-04-14T08:25:39.251Z,35.05
2018-04-14T08:26:19.184Z,34.85
2018-04-14T08:27:02.088Z,34.66
2018-04-14T08:27:42.970Z,34.95
2018-04-14T08:28:23.773Z,35.33
2018-04-14T08:29:04.016Z,35.14
2018-04-14T08:29:44.501Z,35.14
2018-04-14T08:30:24.968Z,35.53
2018-04-14T08:31:05.739Z,34.58
2018-04-14T08:31:46.654Z,34.36
2018-04-14T08:32:26.930Z,34.95
2018-04-14T08:33:08.176Z,35.24
2018-04-14T08:33:49.645Z,35.33
2018-04-14T08:34:30.220Z,35.16
2018-04-14T08:35:10.814Z,34.87
2018-04-14T08:35:51.365Z,34.67
2018-04-14T08:36:31.862Z,34.67
2018-04-14T08:37:12.419Z,34.67
2018-04-14T08:37:52.898Z,34.38
2018-04-14T08:38:33.278Z,34.3
2018-04-14T08:39:13.709Z,34.3
2018-04-14T08:39:54.145Z,34.2
2018-04-14T08:40:34.681Z,34.3
2018-04-14T08:41:15.582Z,34.3
2018-04-14T08:41:56.715Z,34.2
2018-04-14T08:42:36.600Z,34.03
2018-04-14T08:43:17.012Z,33.54
2018-04-14T08:43:57.516Z,32.86
2018-04-14T08:44:38.616Z,33.15
2018-04-14T08:45:19.431Z,33.17
2018-04-14T08:46:00.746Z,32.39
2018-04-14T08:46:40.895Z,32
2018-04-14T08:47:21.729Z,31.92
2018-04-14T08:48:02.334Z,31.82
2018-04-14T08:48:42.823Z,31.9
2018-04-14T08:49:23.271Z,31.63
2018-04-14T08:50:03.619Z,31.73
2018-04-14T08:50:44.064Z,32
2018-04-14T08:51:24.737Z,32.2
2018-04-14T08:52:05.124Z,32.59
2018-04-14T08:52:45.670Z,33.15
2018-04-14T08:53:26.682Z,33.44
2018-04-14T08:54:07.094Z,33.83
2018-04-14T08:54:47.604Z,34.03
2018-04-14T08:55:28.336Z,34.01
2018-04-14T08:56:09.306Z,34.2
2018-04-14T08:56:49.700Z,34.59
2018-04-14T08:57:30.076Z,34.87
2018-04-14T08:58:11.088Z,35.45
2018-04-14T08:58:52.783Z,35.25
2018-04-14T08:59:32.418Z,35.35
2018-04-14T09:00:13.131Z,35.35
2018-04-14T09:00:53.596Z,35.35
2018-04-14T09:01:34.170Z,35.25
2018-04-14T09:02:14.911Z,35.63
2018-04-14T09:02:55.268Z,35.63
2018-04-14T09:03:35.609Z,35.64
2018-04-14T09:04:16.207Z,35.35
2018-04-14T09:04:56.791Z,35.57
2018-04-14T09:05:37.668Z,35.27
2018-04-14T09:06:18.085Z,34.79
2018-04-14T09:06:58.548Z,34.2
2018-04-14T09:07:38.925Z,34.59
2018-04-14T09:08:19.578Z,34.01
2018-04-14T09:09:00.715Z,34.69
2018-04-14T09:09:40.684Z,34.32
2018-04-14T09:10:21.471Z,34.32
2018-04-14T09:11:01.782Z,34.22
2018-04-14T09:11:42.326Z,33.93
2018-04-14T09:12:23.658Z,34.03
2018-04-14T09:13:03.679Z,33.85
2018-04-14T09:13:44.211Z,33.17
2018-04-14T09:14:24.568Z,32.99
2018-04-14T09:15:05.231Z,31.92
2018-04-14T09:15:46.001Z,31.73
2018-04-14T09:16:26.546Z,31.45
2018-04-14T09:17:07.009Z,31.43
2018-04-14T09:17:47.708Z,31.54
2018-04-14T09:18:29.442Z,31.53
2018-04-14T09:19:09.229Z,31.63
2018-04-14T09:19:50.227Z,31.54
2018-04-14T09:20:30.703Z,30.77
2018-04-14T09:21:12.792Z,30.87
2018-04-14T09:21:53.447Z,30.39
2018-04-14T09:22:34.503Z,30.19
2018-04-14T09:23:14.996Z,29.81
2018-04-14T09:23:56.199Z,30.1
2018-04-14T09:24:36.471Z,30.1
2018-04-14T09:25:17.667Z,30.08
2018-04-14T09:25:57.557Z,30.47
2018-04-14T09:26:38.225Z,30.75
2018-04-14T09:27:18.816Z,31.14
2018-04-14T09:27:59.526Z,31.51
2018-04-14T09:28:40.129Z,31.41
2018-04-14T09:29:20.659Z,31.41